sensor_id;sensor_type;location;lat;lon;timestamp;P1;durP1;ratioP1;P2;durP2;ratioP2
15317;SDS011;7759;52.528;13.346;2023-03-01T00:01:21;13.83;;;6.60;;
15317;SDS011;7759;52.528;13.346;2023-03-01T00:03:47;14.17;;;7.07;;
15317;SDS011;7759;52.528;13.346;2023-03-01T00:06:13;20.17;;;9.30;;
15317;SDS011;7759;52.528;13.346;2023-03-01T00:08:40;15.23;;;7.93;;
15317;SDS011;7759;52.528;13.346;2023-03-01T00:11:12;20.83;;;8.33;;
15317;SDS011;7759;52.528;13.346;2023-03-01T00:13:39;16.47;;;7.47;;
15317;SDS011;7759;52.528;13.346;2023-03-01T00:16:06;16.17;;;6.97;;
15317;SDS011;7759;52.528;13.346;2023-03-01T00:18:32;12.93;;;6.93;;
15317;SDS011;7759;52.528;13.346;2023-03-01T00:20:58;14.63;;;8.13;;
15317;SDS011;7759;52.528;13.346;2023-03-01T00:23:24;16.80;;;7.57;;
15317;SDS011;7759;52.528;13.346;2023-03-01T00:25:50;13.23;;;7.40;;
15317;SDS011;7759;52.528;13.346;2023-03-01T00:28:16;12.30;;;7.23;;
15317;SDS011;7759;52.528;13.346;2023-03-01T00:30:42;15.63;;;8.27;;
15317;SDS011;7759;52.528;13.346;2023-03-01T00:33:08;14.20;;;6.97;;
15317;SDS011;7759;52.528;13.346;2023-03-01T00:35:35;15.53;;;7.77;;
15317;SDS011;7759;52.528;13.346;2023-03-01T00:38:01;20.60;;;9.27;;
15317;SDS011;7759;52.528;13.346;2023-03-01T00:40:28;23.03;;;9.53;;
15317;SDS011;7759;52.528;13.346;2023-03-01T00:42:54;19.00;;;8.30;;
15317;SDS011;7759;52.528;13.346;2023-03-01T00:45:20;23.80;;;10.50;;
15317;SDS011;7759;52.528;13.346;2023-03-01T00:47:47;19.73;;;10.03;;
15317;SDS011;7759;52.528;13.346;2023-03-01T00:50:13;18.83;;;9.37;;
15317;SDS011;7759;52.528;13.346;2023-03-01T00:52:39;19.77;;;9.83;;
15317;SDS011;7759;52.528;13.346;2023-03-01T00:55:06;24.73;;;8.70;;
15317;SDS011;7759;52.528;13.346;2023-03-01T00:57:32;24.67;;;10.03;;
15317;SDS011;7759;52.528;13.346;2023-03-01T00:59:58;27.07;;;9.50;;
15317;SDS011;7759;52.528;13.346;2023-03-01T01:02:24;22.83;;;8.80;;
15317;SDS011;7759;52.528;13.346;2023-03-01T01:04:50;17.83;;;8.83;;
15317;SDS011;7759;52.528;13.346;2023-03-01T01:07:16;22.63;;;10.10;;
15317;SDS011;7759;52.528;13.346;2023-03-01T01:09:42;20.67;;;9.30;;
15317;SDS011;7759;52.528;13.346;2023-03-01T01:12:08;18.93;;;8.80;;
15317;SDS011;7759;52.528;13.346;2023-03-01T01:14:34;17.80;;;8.50;;
15317;SDS011;7759;52.528;13.346;2023-03-01T01:17:00;19.33;;;8.50;;
15317;SDS011;7759;52.528;13.346;2023-03-01T01:19:26;19.90;;;9.23;;
15317;SDS011;7759;52.528;13.346;2023-03-01T01:21:52;22.40;;;10.17;;
15317;SDS011;7759;52.528;13.346;2023-03-01T01:24:18;19.40;;;9.77;;
15317;SDS011;7759;52.528;13.346;2023-03-01T01:26:44;17.07;;;8.53;;
15317;SDS011;7759;52.528;13.346;2023-03-01T01:29:11;26.40;;;9.27;;
15317;SDS011;7759;52.528;13.346;2023-03-01T01:31:37;21.30;;;9.23;;
15317;SDS011;7759;52.528;13.346;2023-03-01T01:34:04;13.17;;;7.43;;
15317;SDS011;7759;52.528;13.346;2023-03-01T01:36:30;16.83;;;8.93;;
15317;SDS011;7759;52.528;13.346;2023-03-01T01:38:56;16.57;;;8.13;;
15317;SDS011;7759;52.528;13.346;2023-03-01T01:41:24;15.43;;;8.53;;
15317;SDS011;7759;52.528;13.346;2023-03-01T01:44:10;20.77;;;9.60;;
15317;SDS011;7759;52.528;13.346;2023-03-01T01:46:55;21.40;;;9.33;;
15317;SDS011;7759;52.528;13.346;2023-03-01T01:49:27;17.93;;;8.60;;
15317;SDS011;7759;52.528;13.346;2023-03-01T01:51:57;12.90;;;7.03;;
15317;SDS011;7759;52.528;13.346;2023-03-01T01:54:27;19.83;;;9.77;;
15317;SDS011;7759;52.528;13.346;2023-03-01T01:56:56;17.73;;;7.83;;
15317;SDS011;7759;52.528;13.346;2023-03-01T01:59:23;16.57;;;8.30;;
15317;SDS011;7759;52.528;13.346;2023-03-01T02:01:51;16.37;;;8.67;;
15317;SDS011;7759;52.528;13.346;2023-03-01T02:04:17;14.87;;;7.80;;
15317;SDS011;7759;52.528;13.346;2023-03-01T02:07:02;12.47;;;7.30;;
15317;SDS011;7759;52.528;13.346;2023-03-01T02:09:29;14.63;;;7.87;;
15317;SDS011;7759;52.528;13.346;2023-03-01T02:11:56;20.83;;;8.67;;
15317;SDS011;7759;52.528;13.346;2023-03-01T02:14:22;17.50;;;7.77;;
15317;SDS011;7759;52.528;13.346;2023-03-01T02:16:48;23.07;;;10.17;;
15317;SDS011;7759;52.528;13.346;2023-03-01T02:19:32;18.83;;;9.90;;
15317;SDS011;7759;52.528;13.346;2023-03-01T02:22:13;19.33;;;8.23;;
15317;SDS011;7759;52.528;13.346;2023-03-01T02:24:47;17.77;;;8.00;;
15317;SDS011;7759;52.528;13.346;2023-03-01T02:27:16;13.93;;;7.23;;
15317;SDS011;7759;52.528;13.346;2023-03-01T02:29:49;19.80;;;10.20;;
15317;SDS011;7759;52.528;13.346;2023-03-01T02:32:15;20.53;;;9.50;;
15317;SDS011;7759;52.528;13.346;2023-03-01T02:34:49;18.57;;;9.77;;
15317;SDS011;7759;52.528;13.346;2023-03-01T02:37:15;18.63;;;8.73;;
15317;SDS011;7759;52.528;13.346;2023-03-01T02:39:48;18.13;;;8.93;;
15317;SDS011;7759;52.528;13.346;2023-03-01T02:42:17;18.30;;;8.63;;
15317;SDS011;7759;52.528;13.346;2023-03-01T02:44:44;14.60;;;7.93;;
15317;SDS011;7759;52.528;13.346;2023-03-01T02:47:10;16.57;;;8.20;;
15317;SDS011;7759;52.528;13.346;2023-03-01T02:49:36;15.57;;;8.17;;
15317;SDS011;7759;52.528;13.346;2023-03-01T02:52:17;17.73;;;8.43;;
15317;SDS011;7759;52.528;13.346;2023-03-01T02:54:58;16.37;;;7.40;;
15317;SDS011;7759;52.528;13.346;2023-03-01T02:57:24;13.83;;;7.90;;
15317;SDS011;7759;52.528;13.346;2023-03-01T02:59:52;19.93;;;8.47;;
15317;SDS011;7759;52.528;13.346;2023-03-01T03:02:28;15.60;;;7.30;;
15317;SDS011;7759;52.528;13.346;2023-03-01T03:05:01;17.33;;;8.83;;
15317;SDS011;7759;52.528;13.346;2023-03-01T03:07:27;20.30;;;8.03;;
15317;SDS011;7759;52.528;13.346;2023-03-01T03:09:53;19.27;;;8.27;;
15317;SDS011;7759;52.528;13.346;2023-03-01T03:12:19;19.53;;;8.50;;
15317;SDS011;7759;52.528;13.346;2023-03-01T03:14:45;16.03;;;8.30;;
15317;SDS011;7759;52.528;13.346;2023-03-01T03:17:11;17.23;;;7.77;;
15317;SDS011;7759;52.528;13.346;2023-03-01T03:19:37;21.60;;;9.20;;
15317;SDS011;7759;52.528;13.346;2023-03-01T03:22:03;15.00;;;8.40;;
15317;SDS011;7759;52.528;13.346;2023-03-01T03:24:28;17.77;;;8.20;;
15317;SDS011;7759;52.528;13.346;2023-03-01T03:27:02;17.27;;;8.07;;
15317;SDS011;7759;52.528;13.346;2023-03-01T03:29:28;14.87;;;7.67;;
15317;SDS011;7759;52.528;13.346;2023-03-01T03:31:54;12.03;;;6.40;;
15317;SDS011;7759;52.528;13.346;2023-03-01T03:34:20;14.57;;;8.10;;
15317;SDS011;7759;52.528;13.346;2023-03-01T03:36:46;13.60;;;6.60;;
15317;SDS011;7759;52.528;13.346;2023-03-01T03:39:12;17.97;;;7.80;;
15317;SDS011;7759;52.528;13.346;2023-03-01T03:41:37;13.33;;;7.57;;
15317;SDS011;7759;52.528;13.346;2023-03-01T03:44:03;16.30;;;7.40;;
15317;SDS011;7759;52.528;13.346;2023-03-01T03:46:29;11.97;;;7.47;;
15317;SDS011;7759;52.528;13.346;2023-03-01T03:48:55;17.60;;;7.40;;
15317;SDS011;7759;52.528;13.346;2023-03-01T03:51:21;18.40;;;7.43;;
15317;SDS011;7759;52.528;13.346;2023-03-01T03:53:47;14.67;;;7.27;;
15317;SDS011;7759;52.528;13.346;2023-03-01T03:56:14;16.50;;;8.10;;
15317;SDS011;7759;52.528;13.346;2023-03-01T03:58:40;14.47;;;7.90;;
15317;SDS011;7759;52.528;13.346;2023-03-01T04:01:06;16.70;;;8.67;;
15317;SDS011;7759;52.528;13.346;2023-03-01T04:03:32;15.10;;;8.63;;
15317;SDS011;7759;52.528;13.346;2023-03-01T04:05:59;17.23;;;7.73;;
15317;SDS011;7759;52.528;13.346;2023-03-01T04:08:26;21.50;;;8.13;;
15317;SDS011;7759;52.528;13.346;2023-03-01T04:10:52;13.13;;;6.90;;
15317;SDS011;7759;52.528;13.346;2023-03-01T04:13:22;15.90;;;8.33;;
15317;SDS011;7759;52.528;13.346;2023-03-01T04:15:50;14.27;;;7.70;;
15317;SDS011;7759;52.528;13.346;2023-03-01T04:18:16;16.67;;;7.80;;
15317;SDS011;7759;52.528;13.346;2023-03-01T04:20:43;18.67;;;9.30;;
15317;SDS011;7759;52.528;13.346;2023-03-01T04:23:14;17.50;;;9.30;;
15317;SDS011;7759;52.528;13.346;2023-03-01T04:25:48;19.47;;;7.70;;
15317;SDS011;7759;52.528;13.346;2023-03-01T04:28:18;21.10;;;9.30;;
15317;SDS011;7759;52.528;13.346;2023-03-01T04:30:44;14.27;;;8.10;;
15317;SDS011;7759;52.528;13.346;2023-03-01T04:33:10;12.33;;;7.17;;
15317;SDS011;7759;52.528;13.346;2023-03-01T04:35:36;17.20;;;7.80;;
15317;SDS011;7759;52.528;13.346;2023-03-01T04:38:03;14.43;;;6.93;;
15317;SDS011;7759;52.528;13.346;2023-03-01T04:40:30;15.93;;;6.83;;
15317;SDS011;7759;52.528;13.346;2023-03-01T04:42:56;15.77;;;8.03;;
15317;SDS011;7759;52.528;13.346;2023-03-01T04:45:22;22.03;;;8.17;;
15317;SDS011;7759;52.528;13.346;2023-03-01T04:47:48;17.10;;;7.13;;
15317;SDS011;7759;52.528;13.346;2023-03-01T04:50:15;14.10;;;7.33;;
15317;SDS011;7759;52.528;13.346;2023-03-01T04:52:42;16.50;;;7.03;;
15317;SDS011;7759;52.528;13.346;2023-03-01T04:55:08;15.73;;;7.17;;
15317;SDS011;7759;52.528;13.346;2023-03-01T04:57:34;15.57;;;6.30;;
15317;SDS011;7759;52.528;13.346;2023-03-01T05:00:00;18.20;;;7.17;;
15317;SDS011;7759;52.528;13.346;2023-03-01T05:02:44;18.57;;;8.40;;
15317;SDS011;7759;52.528;13.346;2023-03-01T05:05:10;15.87;;;7.47;;
15317;SDS011;7759;52.528;13.346;2023-03-01T05:07:36;14.73;;;7.20;;
15317;SDS011;7759;52.528;13.346;2023-03-01T05:10:02;15.07;;;7.33;;
15317;SDS011;7759;52.528;13.346;2023-03-01T05:12:28;14.63;;;7.37;;
15317;SDS011;7759;52.528;13.346;2023-03-01T05:14:53;17.43;;;7.57;;
15317;SDS011;7759;52.528;13.346;2023-03-01T05:17:19;13.33;;;7.13;;
15317;SDS011;7759;52.528;13.346;2023-03-01T05:19:45;16.73;;;7.27;;
15317;SDS011;7759;52.528;13.346;2023-03-01T05:22:11;16.80;;;7.17;;
15317;SDS011;7759;52.528;13.346;2023-03-01T05:24:37;13.77;;;7.70;;
15317;SDS011;7759;52.528;13.346;2023-03-01T05:27:03;15.80;;;7.37;;
15317;SDS011;7759;52.528;13.346;2023-03-01T05:29:30;15.00;;;7.90;;
15317;SDS011;7759;52.528;13.346;2023-03-01T05:32:00;13.60;;;7.73;;
15317;SDS011;7759;52.528;13.346;2023-03-01T05:34:30;14.70;;;7.77;;
15317;SDS011;7759;52.528;13.346;2023-03-01T05:36:56;15.27;;;7.80;;
15317;SDS011;7759;52.528;13.346;2023-03-01T05:39:23;18.20;;;7.77;;
15317;SDS011;7759;52.528;13.346;2023-03-01T05:41:56;19.10;;;6.87;;
15317;SDS011;7759;52.528;13.346;2023-03-01T05:44:22;15.67;;;7.50;;
15317;SDS011;7759;52.528;13.346;2023-03-01T05:46:48;13.57;;;6.97;;
15317;SDS011;7759;52.528;13.346;2023-03-01T05:49:14;13.57;;;6.40;;
15317;SDS011;7759;52.528;13.346;2023-03-01T05:51:41;13.77;;;7.13;;
15317;SDS011;7759;52.528;13.346;2023-03-01T05:54:07;19.60;;;6.63;;
15317;SDS011;7759;52.528;13.346;2023-03-01T05:56:33;13.40;;;7.03;;
15317;SDS011;7759;52.528;13.346;2023-03-01T05:59:00;12.17;;;6.40;;
15317;SDS011;7759;52.528;13.346;2023-03-01T06:01:26;12.63;;;7.10;;
15317;SDS011;7759;52.528;13.346;2023-03-01T06:03:52;13.73;;;7.57;;
15317;SDS011;7759;52.528;13.346;2023-03-01T06:06:17;11.63;;;6.67;;
15317;SDS011;7759;52.528;13.346;2023-03-01T06:08:43;13.63;;;6.63;;
15317;SDS011;7759;52.528;13.346;2023-03-01T06:11:09;12.60;;;5.93;;
15317;SDS011;7759;52.528;13.346;2023-03-01T06:13:35;13.37;;;7.53;;
15317;SDS011;7759;52.528;13.346;2023-03-01T06:16:04;13.77;;;7.07;;
15317;SDS011;7759;52.528;13.346;2023-03-01T06:18:30;13.67;;;6.60;;
15317;SDS011;7759;52.528;13.346;2023-03-01T06:20:55;14.87;;;6.67;;
15317;SDS011;7759;52.528;13.346;2023-03-01T06:23:22;14.37;;;6.40;;
15317;SDS011;7759;52.528;13.346;2023-03-01T06:25:48;14.50;;;7.13;;
15317;SDS011;7759;52.528;13.346;2023-03-01T06:28:14;11.90;;;6.73;;
15317;SDS011;7759;52.528;13.346;2023-03-01T06:30:40;16.10;;;7.60;;
15317;SDS011;7759;52.528;13.346;2023-03-01T06:33:06;17.97;;;7.23;;
15317;SDS011;7759;52.528;13.346;2023-03-01T06:35:32;16.33;;;7.50;;
15317;SDS011;7759;52.528;13.346;2023-03-01T06:37:58;16.73;;;8.03;;
15317;SDS011;7759;52.528;13.346;2023-03-01T06:40:25;14.57;;;7.70;;
15317;SDS011;7759;52.528;13.346;2023-03-01T06:42:51;15.27;;;8.00;;
15317;SDS011;7759;52.528;13.346;2023-03-01T06:45:18;15.73;;;7.60;;
15317;SDS011;7759;52.528;13.346;2023-03-01T06:47:44;15.60;;;7.73;;
15317;SDS011;7759;52.528;13.346;2023-03-01T06:50:10;12.00;;;6.30;;
15317;SDS011;7759;52.528;13.346;2023-03-01T06:52:36;17.47;;;7.37;;
15317;SDS011;7759;52.528;13.346;2023-03-01T06:55:03;15.50;;;8.47;;
15317;SDS011;7759;52.528;13.346;2023-03-01T06:57:29;22.00;;;9.33;;
15317;SDS011;7759;52.528;13.346;2023-03-01T06:59:55;23.90;;;8.87;;
15317;SDS011;7759;52.528;13.346;2023-03-01T07:02:21;17.43;;;7.63;;
15317;SDS011;7759;52.528;13.346;2023-03-01T07:04:48;13.87;;;7.33;;
15317;SDS011;7759;52.528;13.346;2023-03-01T07:07:14;20.03;;;8.83;;
15317;SDS011;7759;52.528;13.346;2023-03-01T07:09:40;20.03;;;9.33;;
15317;SDS011;7759;52.528;13.346;2023-03-01T07:12:06;15.20;;;7.90;;
15317;SDS011;7759;52.528;13.346;2023-03-01T07:14:32;14.23;;;7.63;;
15317;SDS011;7759;52.528;13.346;2023-03-01T07:16:58;17.97;;;8.53;;
15317;SDS011;7759;52.528;13.346;2023-03-01T07:19:24;21.93;;;9.97;;
15317;SDS011;7759;52.528;13.346;2023-03-01T07:21:50;16.67;;;8.20;;
15317;SDS011;7759;52.528;13.346;2023-03-01T07:24:16;17.53;;;7.40;;
15317;SDS011;7759;52.528;13.346;2023-03-01T07:26:42;22.10;;;8.50;;
15317;SDS011;7759;52.528;13.346;2023-03-01T07:29:09;15.33;;;7.47;;
15317;SDS011;7759;52.528;13.346;2023-03-01T07:31:35;18.27;;;8.37;;
15317;SDS011;7759;52.528;13.346;2023-03-01T07:34:01;19.37;;;9.90;;
15317;SDS011;7759;52.528;13.346;2023-03-01T07:36:27;27.97;;;10.37;;
15317;SDS011;7759;52.528;13.346;2023-03-01T07:38:53;23.47;;;9.17;;
15317;SDS011;7759;52.528;13.346;2023-03-01T07:41:20;25.57;;;11.60;;
15317;SDS011;7759;52.528;13.346;2023-03-01T07:43:46;21.00;;;9.93;;
15317;SDS011;7759;52.528;13.346;2023-03-01T07:46:12;20.47;;;9.83;;
15317;SDS011;7759;52.528;13.346;2023-03-01T07:48:38;19.83;;;9.30;;
15317;SDS011;7759;52.528;13.346;2023-03-01T07:51:05;17.60;;;8.70;;
15317;SDS011;7759;52.528;13.346;2023-03-01T07:53:31;13.43;;;6.87;;
15317;SDS011;7759;52.528;13.346;2023-03-01T07:56:11;16.63;;;8.57;;
15317;SDS011;7759;52.528;13.346;2023-03-01T07:58:38;13.37;;;6.47;;
15317;SDS011;7759;52.528;13.346;2023-03-01T08:01:05;15.10;;;7.00;;
15317;SDS011;7759;52.528;13.346;2023-03-01T08:03:31;11.03;;;6.33;;
15317;SDS011;7759;52.528;13.346;2023-03-01T08:06:01;14.03;;;7.37;;
15317;SDS011;7759;52.528;13.346;2023-03-01T08:08:27;15.27;;;6.47;;
15317;SDS011;7759;52.528;13.346;2023-03-01T08:10:55;19.67;;;7.53;;
15317;SDS011;7759;52.528;13.346;2023-03-01T08:13:22;17.13;;;6.17;;
15317;SDS011;7759;52.528;13.346;2023-03-01T08:15:48;12.87;;;5.83;;
15317;SDS011;7759;52.528;13.346;2023-03-01T08:18:14;19.70;;;6.13;;
15317;SDS011;7759;52.528;13.346;2023-03-01T08:20:40;13.07;;;5.53;;
15317;SDS011;7759;52.528;13.346;2023-03-01T08:23:06;23.63;;;5.87;;
15317;SDS011;7759;52.528;13.346;2023-03-01T08:25:32;10.30;;;4.53;;
15317;SDS011;7759;52.528;13.346;2023-03-01T08:27:58;10.77;;;5.10;;
15317;SDS011;7759;52.528;13.346;2023-03-01T08:30:24;16.47;;;5.77;;
15317;SDS011;7759;52.528;13.346;2023-03-01T08:32:50;14.87;;;6.67;;
15317;SDS011;7759;52.528;13.346;2023-03-01T08:35:17;14.60;;;5.50;;
15317;SDS011;7759;52.528;13.346;2023-03-01T08:37:43;11.27;;;5.20;;
15317;SDS011;7759;52.528;13.346;2023-03-01T08:40:09;7.90;;;3.93;;
15317;SDS011;7759;52.528;13.346;2023-03-01T08:42:35;7.00;;;4.37;;
15317;SDS011;7759;52.528;13.346;2023-03-01T08:45:02;13.87;;;4.23;;
15317;SDS011;7759;52.528;13.346;2023-03-01T08:47:28;9.90;;;4.37;;
15317;SDS011;7759;52.528;13.346;2023-03-01T08:49:54;10.03;;;4.60;;
15317;SDS011;7759;52.528;13.346;2023-03-01T08:52:20;9.47;;;4.10;;
15317;SDS011;7759;52.528;13.346;2023-03-01T08:54:49;17.23;;;3.80;;
15317;SDS011;7759;52.528;13.346;2023-03-01T08:57:15;13.70;;;3.60;;
15317;SDS011;7759;52.528;13.346;2023-03-01T08:59:41;12.03;;;3.83;;
15317;SDS011;7759;52.528;13.346;2023-03-01T09:02:11;5.20;;;3.20;;
15317;SDS011;7759;52.528;13.346;2023-03-01T09:04:37;10.57;;;2.83;;
15317;SDS011;7759;52.528;13.346;2023-03-01T09:07:04;7.57;;;3.30;;
15317;SDS011;7759;52.528;13.346;2023-03-01T09:09:30;5.50;;;2.70;;
15317;SDS011;7759;52.528;13.346;2023-03-01T09:11:55;19.30;;;6.93;;
15317;SDS011;7759;52.528;13.346;2023-03-01T09:14:21;11.30;;;4.00;;
15317;SDS011;7759;52.528;13.346;2023-03-01T09:16:47;8.57;;;4.00;;
15317;SDS011;7759;52.528;13.346;2023-03-01T09:19:13;8.03;;;4.20;;
15317;SDS011;7759;52.528;13.346;2023-03-01T09:21:39;14.53;;;4.10;;
15317;SDS011;7759;52.528;13.346;2023-03-01T09:24:06;8.27;;;3.40;;
15317;SDS011;7759;52.528;13.346;2023-03-01T09:26:33;9.43;;;3.33;;
15317;SDS011;7759;52.528;13.346;2023-03-01T09:28:59;9.70;;;3.43;;
15317;SDS011;7759;52.528;13.346;2023-03-01T09:31:25;8.20;;;4.17;;
15317;SDS011;7759;52.528;13.346;2023-03-01T09:33:52;5.90;;;3.20;;
15317;SDS011;7759;52.528;13.346;2023-03-01T09:36:20;7.00;;;3.10;;
15317;SDS011;7759;52.528;13.346;2023-03-01T09:38:46;5.83;;;3.13;;
15317;SDS011;7759;52.528;13.346;2023-03-01T09:44:00;6.60;;;2.93;;
15317;SDS011;7759;52.528;13.346;2023-03-01T09:46:28;4.73;;;2.40;;
15317;SDS011;7759;52.528;13.346;2023-03-01T09:48:59;7.27;;;3.07;;
15317;SDS011;7759;52.528;13.346;2023-03-01T09:51:29;4.73;;;3.33;;
15317;SDS011;7759;52.528;13.346;2023-03-01T09:53:56;8.77;;;3.07;;
15317;SDS011;7759;52.528;13.346;2023-03-01T09:56:47;6.70;;;3.37;;
15317;SDS011;7759;52.528;13.346;2023-03-01T09:59:25;10.03;;;4.57;;
15317;SDS011;7759;52.528;13.346;2023-03-01T10:04:45;6.83;;;3.90;;
15317;SDS011;7759;52.528;13.346;2023-03-01T10:07:15;7.93;;;4.40;;
15317;SDS011;7759;52.528;13.346;2023-03-01T10:09:42;8.73;;;3.40;;
15317;SDS011;7759;52.528;13.346;2023-03-01T10:12:12;5.63;;;3.10;;
15317;SDS011;7759;52.528;13.346;2023-03-01T10:14:43;5.90;;;3.47;;
15317;SDS011;7759;52.528;13.346;2023-03-01T10:17:18;9.70;;;4.00;;
15317;SDS011;7759;52.528;13.346;2023-03-01T10:19:46;7.77;;;4.00;;
15317;SDS011;7759;52.528;13.346;2023-03-01T10:22:19;8.47;;;3.50;;
15317;SDS011;7759;52.528;13.346;2023-03-01T10:24:49;5.33;;;3.00;;
15317;SDS011;7759;52.528;13.346;2023-03-01T10:30:04;6.13;;;3.47;;
15317;SDS011;7759;52.528;13.346;2023-03-01T10:32:31;7.93;;;3.73;;
15317;SDS011;7759;52.528;13.346;2023-03-01T10:34:57;10.97;;;3.10;;
15317;SDS011;7759;52.528;13.346;2023-03-01T10:37:23;8.23;;;2.93;;
15317;SDS011;7759;52.528;13.346;2023-03-01T10:40:07;8.37;;;3.23;;
15317;SDS011;7759;52.528;13.346;2023-03-01T10:42:38;4.37;;;2.50;;
15317;SDS011;7759;52.528;13.346;2023-03-01T10:47:42;7.13;;;2.87;;
15317;SDS011;7759;52.528;13.346;2023-03-01T10:50:21;5.30;;;2.97;;
15317;SDS011;7759;52.528;13.346;2023-03-01T10:53:00;5.57;;;2.33;;
15317;SDS011;7759;52.528;13.346;2023-03-01T10:55:31;4.50;;;2.40;;
15317;SDS011;7759;52.528;13.346;2023-03-01T11:00:50;6.43;;;2.47;;
15317;SDS011;7759;52.528;13.346;2023-03-01T11:03:18;5.87;;;2.60;;
15317;SDS011;7759;52.528;13.346;2023-03-01T11:08:27;11.00;;;6.13;;
15317;SDS011;7759;52.528;13.346;2023-03-01T11:11:03;4.30;;;2.50;;
15317;SDS011;7759;52.528;13.346;2023-03-01T11:13:29;7.33;;;2.40;;
15317;SDS011;7759;52.528;13.346;2023-03-01T11:15:59;3.33;;;1.97;;
15317;SDS011;7759;52.528;13.346;2023-03-01T11:18:25;2.20;;;1.43;;
15317;SDS011;7759;52.528;13.346;2023-03-01T11:20:53;5.30;;;1.97;;
15317;SDS011;7759;52.528;13.346;2023-03-01T11:23:20;3.27;;;1.60;;
15317;SDS011;7759;52.528;13.346;2023-03-01T11:25:49;3.17;;;1.90;;
15317;SDS011;7759;52.528;13.346;2023-03-01T11:28:17;2.90;;;1.80;;
15317;SDS011;7759;52.528;13.346;2023-03-01T11:30:48;2.63;;;1.57;;
15317;SDS011;7759;52.528;13.346;2023-03-01T11:33:24;3.90;;;2.00;;
15317;SDS011;7759;52.528;13.346;2023-03-01T11:36:00;5.60;;;1.60;;
15317;SDS011;7759;52.528;13.346;2023-03-01T11:38:27;5.97;;;1.93;;
15317;SDS011;7759;52.528;13.346;2023-03-01T11:41:06;3.93;;;2.03;;
15317;SDS011;7759;52.528;13.346;2023-03-01T11:43:35;2.87;;;1.63;;
15317;SDS011;7759;52.528;13.346;2023-03-01T11:48:50;3.13;;;1.97;;
15317;SDS011;7759;52.528;13.346;2023-03-01T11:51:21;3.50;;;1.97;;
15317;SDS011;7759;52.528;13.346;2023-03-01T11:54:02;6.83;;;2.37;;
15317;SDS011;7759;52.528;13.346;2023-03-01T11:59:13;3.07;;;1.97;;
15317;SDS011;7759;52.528;13.346;2023-03-01T12:04:21;3.93;;;1.83;;
15317;SDS011;7759;52.528;13.346;2023-03-01T12:06:56;3.00;;;1.60;;
15317;SDS011;7759;52.528;13.346;2023-03-01T12:09:39;3.53;;;1.83;;
15317;SDS011;7759;52.528;13.346;2023-03-01T12:12:25;3.57;;;1.60;;
15317;SDS011;7759;52.528;13.346;2023-03-01T12:14:55;3.60;;;1.40;;
15317;SDS011;7759;52.528;13.346;2023-03-01T12:17:29;2.00;;;1.80;;
15317;SDS011;7759;52.528;13.346;2023-03-01T12:25:54;2.63;;;1.90;;
15317;SDS011;7759;52.528;13.346;2023-03-01T12:28:25;2.57;;;1.50;;
15317;SDS011;7759;52.528;13.346;2023-03-01T12:31:09;3.20;;;2.07;;
15317;SDS011;7759;52.528;13.346;2023-03-01T12:33:43;3.50;;;1.97;;
15317;SDS011;7759;52.528;13.346;2023-03-01T12:36:26;5.20;;;2.03;;
15317;SDS011;7759;52.528;13.346;2023-03-01T12:38:59;2.60;;;1.77;;
15317;SDS011;7759;52.528;13.346;2023-03-01T12:41:39;4.57;;;1.83;;
15317;SDS011;7759;52.528;13.346;2023-03-01T12:44:15;3.77;;;1.60;;
15317;SDS011;7759;52.528;13.346;2023-03-01T12:46:52;2.57;;;1.60;;
15317;SDS011;7759;52.528;13.346;2023-03-01T12:49:21;3.63;;;1.80;;
15317;SDS011;7759;52.528;13.346;2023-03-01T12:51:59;8.20;;;2.10;;
15317;SDS011;7759;52.528;13.346;2023-03-01T12:54:29;3.77;;;2.00;;
15317;SDS011;7759;52.528;13.346;2023-03-01T12:56:56;3.03;;;1.70;;
15317;SDS011;7759;52.528;13.346;2023-03-01T12:59:31;2.13;;;1.60;;
15317;SDS011;7759;52.528;13.346;2023-03-01T13:05:20;2.53;;;1.60;;
15317;SDS011;7759;52.528;13.346;2023-03-01T13:07:51;10.03;;;1.93;;
15317;SDS011;7759;52.528;13.346;2023-03-01T13:10:21;6.87;;;2.43;;
15317;SDS011;7759;52.528;13.346;2023-03-01T13:17:53;3.87;;;1.83;;
15317;SDS011;7759;52.528;13.346;2023-03-01T13:20:20;2.00;;;1.27;;
15317;SDS011;7759;52.528;13.346;2023-03-01T13:22:46;5.13;;;1.63;;
15317;SDS011;7759;52.528;13.346;2023-03-01T13:25:14;2.37;;;1.13;;
15317;SDS011;7759;52.528;13.346;2023-03-01T13:27:40;3.13;;;1.80;;
15317;SDS011;7759;52.528;13.346;2023-03-01T13:30:37;2.00;;;1.10;;
15317;SDS011;7759;52.528;13.346;2023-03-01T13:32:52;3.87;;;1.47;;
15317;SDS011;7759;52.528;13.346;2023-03-01T13:35:42;2.73;;;1.63;;
15317;SDS011;7759;52.528;13.346;2023-03-01T13:43:40;2.73;;;1.60;;
15317;SDS011;7759;52.528;13.346;2023-03-01T13:46:14;1.57;;;1.27;;
15317;SDS011;7759;52.528;13.346;2023-03-01T13:48:42;6.00;;;1.63;;
15317;SDS011;7759;52.528;13.346;2023-03-01T13:51:09;1.80;;;1.10;;
15317;SDS011;7759;52.528;13.346;2023-03-01T13:53:45;3.63;;;2.03;;
15317;SDS011;7759;52.528;13.346;2023-03-01T13:56:18;1.97;;;1.50;;
15317;SDS011;7759;52.528;13.346;2023-03-01T13:58:49;4.37;;;1.87;;
15317;SDS011;7759;52.528;13.346;2023-03-01T14:01:23;2.50;;;1.30;;
15317;SDS011;7759;52.528;13.346;2023-03-01T14:03:49;2.30;;;1.47;;
15317;SDS011;7759;52.528;13.346;2023-03-01T14:06:18;2.30;;;1.20;;
15317;SDS011;7759;52.528;13.346;2023-03-01T14:08:45;2.63;;;1.37;;
15317;SDS011;7759;52.528;13.346;2023-03-01T14:13:46;4.03;;;1.97;;
15317;SDS011;7759;52.528;13.346;2023-03-01T14:16:24;3.57;;;2.07;;
15317;SDS011;7759;52.528;13.346;2023-03-01T14:21:41;3.77;;;2.30;;
15317;SDS011;7759;52.528;13.346;2023-03-01T14:24:14;6.73;;;3.33;;
15317;SDS011;7759;52.528;13.346;2023-03-01T14:26:40;5.27;;;1.80;;
15317;SDS011;7759;52.528;13.346;2023-03-01T14:29:22;1.97;;;1.37;;
15317;SDS011;7759;52.528;13.346;2023-03-01T14:31:48;2.73;;;1.43;;
15317;SDS011;7759;52.528;13.346;2023-03-01T14:34:32;2.23;;;1.43;;
15317;SDS011;7759;52.528;13.346;2023-03-01T14:37:09;2.00;;;1.30;;
15317;SDS011;7759;52.528;13.346;2023-03-01T14:39:35;4.13;;;1.70;;
15317;SDS011;7759;52.528;13.346;2023-03-01T14:42:02;2.80;;;1.57;;
15317;SDS011;7759;52.528;13.346;2023-03-01T14:44:29;3.23;;;1.53;;
15317;SDS011;7759;52.528;13.346;2023-03-01T14:46:58;2.23;;;1.20;;
15317;SDS011;7759;52.528;13.346;2023-03-01T14:49:28;1.87;;;1.20;;
15317;SDS011;7759;52.528;13.346;2023-03-01T14:52:02;2.73;;;1.13;;
15317;SDS011;7759;52.528;13.346;2023-03-01T14:54:39;2.27;;;1.60;;
15317;SDS011;7759;52.528;13.346;2023-03-01T14:57:12;2.07;;;1.13;;
15317;SDS011;7759;52.528;13.346;2023-03-01T14:59:40;1.60;;;1.20;;
15317;SDS011;7759;52.528;13.346;2023-03-01T15:02:08;2.40;;;1.77;;
15317;SDS011;7759;52.528;13.346;2023-03-01T15:04:41;2.13;;;1.00;;
15317;SDS011;7759;52.528;13.346;2023-03-01T15:07:09;1.40;;;1.00;;
15317;SDS011;7759;52.528;13.346;2023-03-01T15:09:39;5.30;;;1.17;;
15317;SDS011;7759;52.528;13.346;2023-03-01T15:12:24;1.20;;;0.80;;
15317;SDS011;7759;52.528;13.346;2023-03-01T15:14:50;1.87;;;1.13;;
15317;SDS011;7759;52.528;13.346;2023-03-01T15:19:47;2.40;;;1.30;;
15317;SDS011;7759;52.528;13.346;2023-03-01T15:22:14;2.27;;;1.50;;
15317;SDS011;7759;52.528;13.346;2023-03-01T15:24:41;2.20;;;1.30;;
15317;SDS011;7759;52.528;13.346;2023-03-01T15:27:14;2.40;;;1.27;;
15317;SDS011;7759;52.528;13.346;2023-03-01T15:29:41;2.13;;;1.23;;
15317;SDS011;7759;52.528;13.346;2023-03-01T15:32:30;1.70;;;1.00;;
15317;SDS011;7759;52.528;13.346;2023-03-01T15:34:56;1.73;;;1.10;;
15317;SDS011;7759;52.528;13.346;2023-03-01T15:40:20;1.80;;;1.07;;
15317;SDS011;7759;52.528;13.346;2023-03-01T15:42:49;2.70;;;1.13;;